sensor_id;sensor_type;location;lat;lon;timestamp;P1;durP1;ratioP1;P2;durP2;ratioP2
63651;SDS011;49801;37.536;-122.304;2022-07-22T00:00:16;4.43;;;1.13;;
63651;SDS011;49801;37.536;-122.304;2022-07-22T00:00:42;2.78;;;1.25;;
63651;SDS011;49801;37.536;-122.304;2022-07-22T00:01:10;1.63;;;1.17;;
63651;SDS011;49801;37.536;-122.304;2022-07-22T00:01:36;3.22;;;1.10;;
63651;SDS011;49801;37.536;-122.304;2022-07-22T00:02:02;2.72;;;1.38;;
63651;SDS011;49801;37.536;-122.304;2022-07-22T00:02:29;3.13;;;1.35;;
63651;SDS011;49801;37.536;-122.304;2022-07-22T00:02:55;2.20;;;1.30;;
63651;SDS011;49801;37.536;-122.304;2022-07-22T00:03:21;1.40;;;1.20;;
63651;SDS011;49801;37.536;-122.304;2022-07-22T00:03:47;2.67;;;1.23;;
63651;SDS011;49801;37.536;-122.304;2022-07-22T00:04:14;1.60;;;0.90;;
63651;SDS011;49801;37.536;-122.304;2022-07-22T00:04:41;2.75;;;1.27;;
63651;SDS011;49801;37.536;-122.304;2022-07-22T00:05:08;2.33;;;1.65;;
63651;SDS011;49801;37.536;-122.304;2022-07-22T00:05:35;4.85;;;1.25;;
63651;SDS011;49801;37.536;-122.304;2022-07-22T00:06:02;3.30;;;1.30;;
63651;SDS011;49801;37.536;-122.304;2022-07-22T00:06:28;2.83;;;1.20;;
63651;SDS011;49801;37.536;-122.304;2022-07-22T00:06:55;2.80;;;1.38;;
63651;SDS011;49801;37.536;-122.304;2022-07-22T00:07:21;1.38;;;0.95;;
63651;SDS011;49801;37.536;-122.304;2022-07-22T00:07:48;3.20;;;1.00;;
63651;SDS011;49801;37.536;-122.304;2022-07-22T00:08:14;1.50;;;1.10;;
63651;SDS011;49801;37.536;-122.304;2022-07-22T00:08:40;1.85;;;1.08;;
63651;SDS011;49801;37.536;-122.304;2022-07-22T00:09:06;1.38;;;1.23;;
63651;SDS011;49801;37.536;-122.304;2022-07-22T00:09:33;3.50;;;1.13;;
63651;SDS011;49801;37.536;-122.304;2022-07-22T00:09:59;1.35;;;1.00;;
63651;SDS011;49801;37.536;-122.304;2022-07-22T00:10:25;2.70;;;1.25;;
63651;SDS011;49801;37.536;-122.304;2022-07-22T00:10:51;2.10;;;1.20;;
63651;SDS011;49801;37.536;-122.304;2022-07-22T00:11:18;2.03;;;1.20;;
63651;SDS011;49801;37.536;-122.304;2022-07-22T00:11:44;2.90;;;1.10;;
63651;SDS011;49801;37.536;-122.304;2022-07-22T00:12:10;1.48;;;1.20;;
63651;SDS011;49801;37.536;-122.304;2022-07-22T00:12:37;2.35;;;1.13;;
63651;SDS011;49801;37.536;-122.304;2022-07-22T00:13:04;2.20;;;1.58;;
63651;SDS011;49801;37.536;-122.304;2022-07-22T00:13:31;1.95;;;1.10;;
63651;SDS011;49801;37.536;-122.304;2022-07-22T00:13:57;3.78;;;1.40;;
63651;SDS011;49801;37.536;-122.304;2022-07-22T00:14:23;2.78;;;1.23;;
63651;SDS011;49801;37.536;-122.304;2022-07-22T00:14:50;3.00;;;1.38;;
63651;SDS011;49801;37.536;-122.304;2022-07-22T00:15:16;2.40;;;1.38;;
63651;SDS011;49801;37.536;-122.304;2022-07-22T00:15:42;2.35;;;1.60;;
63651;SDS011;49801;37.536;-122.304;2022-07-22T00:16:09;2.78;;;1.15;;
63651;SDS011;49801;37.536;-122.304;2022-07-22T00:16:35;2.40;;;1.30;;
63651;SDS011;49801;37.536;-122.304;2022-07-22T00:17:01;4.13;;;1.45;;
63651;SDS011;49801;37.536;-122.304;2022-07-22T00:17:27;2.83;;;1.38;;
63651;SDS011;49801;37.536;-122.304;2022-07-22T00:17:53;3.10;;;1.45;;
63651;SDS011;49801;37.536;-122.304;2022-07-22T00:18:20;2.67;;;1.42;;
63651;SDS011;49801;37.536;-122.304;2022-07-22T00:18:46;5.18;;;1.50;;
63651;SDS011;49801;37.536;-122.304;2022-07-22T00:19:12;7.13;;;1.73;;
63651;SDS011;49801;37.536;-122.304;2022-07-22T00:19:38;4.32;;;1.40;;
63651;SDS011;49801;37.536;-122.304;2022-07-22T00:20:05;4.55;;;1.50;;
63651;SDS011;49801;37.536;-122.304;2022-07-22T00:20:32;3.92;;;1.48;;
63651;SDS011;49801;37.536;-122.304;2022-07-22T00:20:59;4.57;;;1.55;;
63651;SDS011;49801;37.536;-122.304;2022-07-22T00:21:25;3.05;;;1.50;;
63651;SDS011;49801;37.536;-122.304;2022-07-22T00:21:51;2.58;;;1.63;;
63651;SDS011;49801;37.536;-122.304;2022-07-22T00:22:18;3.53;;;1.77;;
63651;SDS011;49801;37.536;-122.304;2022-07-22T00:22:44;3.28;;;1.77;;
63651;SDS011;49801;37.536;-122.304;2022-07-22T00:23:10;2.33;;;1.38;;
63651;SDS011;49801;37.536;-122.304;2022-07-22T00:23:37;3.08;;;1.75;;
63651;SDS011;49801;37.536;-122.304;2022-07-22T00:24:03;2.08;;;1.42;;
63651;SDS011;49801;37.536;-122.304;2022-07-22T00:24:30;3.58;;;1.48;;
63651;SDS011;49801;37.536;-122.304;2022-07-22T00:24:56;3.83;;;1.80;;
63651;SDS011;49801;37.536;-122.304;2022-07-22T00:25:23;4.25;;;1.88;;
63651;SDS011;49801;37.536;-122.304;2022-07-22T00:25:49;1.60;;;1.25;;
63651;SDS011;49801;37.536;-122.304;2022-07-22T00:26:15;3.67;;;1.75;;
63651;SDS011;49801;37.536;-122.304;2022-07-22T00:26:41;5.35;;;1.80;;
63651;SDS011;49801;37.536;-122.304;2022-07-22T00:27:08;3.33;;;1.52;;
63651;SDS011;49801;37.536;-122.304;2022-07-22T00:27:34;4.57;;;1.50;;
63651;SDS011;49801;37.536;-122.304;2022-07-22T00:28:00;2.92;;;1.88;;
63651;SDS011;49801;37.536;-122.304;2022-07-22T00:28:26;2.05;;;1.45;;
63651;SDS011;49801;37.536;-122.304;2022-07-22T00:28:53;3.03;;;1.75;;
63651;SDS011;49801;37.536;-122.304;2022-07-22T00:29:19;3.20;;;1.73;;
63651;SDS011;49801;37.536;-122.304;2022-07-22T00:29:45;2.42;;;1.27;;
63651;SDS011;49801;37.536;-122.304;2022-07-22T00:30:11;3.10;;;1.20;;
63651;SDS011;49801;37.536;-122.304;2022-07-22T00:30:38;3.72;;;1.83;;
63651;SDS011;49801;37.536;-122.304;2022-07-22T00:31:05;6.43;;;2.05;;
63651;SDS011;49801;37.536;-122.304;2022-07-22T00:31:31;5.60;;;1.85;;
63651;SDS011;49801;37.536;-122.304;2022-07-22T00:31:57;3.28;;;1.67;;
63651;SDS011;49801;37.536;-122.304;2022-07-22T00:32:23;6.50;;;1.83;;
63651;SDS011;49801;37.536;-122.304;2022-07-22T00:32:50;3.55;;;1.95;;
63651;SDS011;49801;37.536;-122.304;2022-07-22T00:33:16;6.15;;;1.88;;
63651;SDS011;49801;37.536;-122.304;2022-07-22T00:33:42;4.85;;;2.38;;
63651;SDS011;49801;37.536;-122.304;2022-07-22T00:34:08;3.40;;;1.75;;
63651;SDS011;49801;37.536;-122.304;2022-07-22T00:34:34;3.67;;;2.17;;
63651;SDS011;49801;37.536;-122.304;2022-07-22T00:35:00;5.63;;;1.92;;
63651;SDS011;49801;37.536;-122.304;2022-07-22T00:35:27;3.58;;;1.50;;
63651;SDS011;49801;37.536;-122.304;2022-07-22T00:35:53;6.28;;;1.90;;
63651;SDS011;49801;37.536;-122.304;2022-07-22T00:36:20;3.67;;;1.80;;
63651;SDS011;49801;37.536;-122.304;2022-07-22T00:36:46;3.78;;;1.95;;
63651;SDS011;49801;37.536;-122.304;2022-07-22T00:37:12;4.03;;;1.88;;
63651;SDS011;49801;37.536;-122.304;2022-07-22T00:37:38;5.05;;;1.90;;
63651;SDS011;49801;37.536;-122.304;2022-07-22T00:38:04;4.57;;;1.58;;
63651;SDS011;49801;37.536;-122.304;2022-07-22T00:38:31;3.60;;;1.80;;
63651;SDS011;49801;37.536;-122.304;2022-07-22T00:38:57;3.22;;;2.08;;
63651;SDS011;49801;37.536;-122.304;2022-07-22T00:39:24;3.33;;;1.23;;
63651;SDS011;49801;37.536;-122.304;2022-07-22T00:39:50;5.88;;;2.28;;
63651;SDS011;49801;37.536;-122.304;2022-07-22T00:40:17;3.30;;;1.85;;
63651;SDS011;49801;37.536;-122.304;2022-07-22T00:40:43;4.93;;;2.05;;
63651;SDS011;49801;37.536;-122.304;2022-07-22T00:41:09;2.30;;;1.65;;
63651;SDS011;49801;37.536;-122.304;2022-07-22T00:41:35;3.13;;;1.90;;
63651;SDS011;49801;37.536;-122.304;2022-07-22T00:42:02;3.88;;;2.05;;
63651;SDS011;49801;37.536;-122.304;2022-07-22T00:42:28;3.20;;;1.83;;
63651;SDS011;49801;37.536;-122.304;2022-07-22T00:42:55;6.07;;;2.83;;
63651;SDS011;49801;37.536;-122.304;2022-07-22T00:43:21;3.53;;;1.95;;
63651;SDS011;49801;37.536;-122.304;2022-07-22T00:43:48;6.13;;;2.22;;
63651;SDS011;49801;37.536;-122.304;2022-07-22T00:44:40;4.15;;;2.20;;
63651;SDS011;49801;37.536;-122.304;2022-07-22T00:45:06;5.05;;;2.13;;
63651;SDS011;49801;37.536;-122.304;2022-07-22T00:45:34;5.88;;;2.30;;
63651;SDS011;49801;37.536;-122.304;2022-07-22T00:46:00;4.22;;;2.35;;
63651;SDS011;49801;37.536;-122.304;2022-07-22T00:46:26;3.70;;;1.80;;
63651;SDS011;49801;37.536;-122.304;2022-07-22T00:46:54;5.80;;;2.45;;
63651;SDS011;49801;37.536;-122.304;2022-07-22T00:47:20;2.90;;;1.80;;
63651;SDS011;49801;37.536;-122.304;2022-07-22T00:47:46;4.95;;;2.20;;
63651;SDS011;49801;37.536;-122.304;2022-07-22T00:48:12;4.82;;;2.38;;
63651;SDS011;49801;37.536;-122.304;2022-07-22T00:48:38;3.33;;;1.88;;
63651;SDS011;49801;37.536;-122.304;2022-07-22T00:49:05;5.80;;;2.05;;
63651;SDS011;49801;37.536;-122.304;2022-07-22T00:49:33;3.00;;;1.90;;
63651;SDS011;49801;37.536;-122.304;2022-07-22T00:49:59;5.10;;;2.35;;
63651;SDS011;49801;37.536;-122.304;2022-07-22T00:50:25;5.80;;;2.47;;
63651;SDS011;49801;37.536;-122.304;2022-07-22T00:50:51;3.35;;;2.08;;
63651;SDS011;49801;37.536;-122.304;2022-07-22T00:51:18;5.40;;;2.53;;
63651;SDS011;49801;37.536;-122.304;2022-07-22T00:51:46;4.43;;;2.33;;
63651;SDS011;49801;37.536;-122.304;2022-07-22T00:52:12;4.07;;;2.03;;
63651;SDS011;49801;37.536;-122.304;2022-07-22T00:52:39;3.70;;;2.20;;
63651;SDS011;49801;37.536;-122.304;2022-07-22T00:53:05;7.20;;;2.40;;
63651;SDS011;49801;37.536;-122.304;2022-07-22T00:53:32;2.67;;;1.80;;
63651;SDS011;49801;37.536;-122.304;2022-07-22T00:53:58;3.85;;;2.33;;
63651;SDS011;49801;37.536;-122.304;2022-07-22T00:54:25;8.57;;;2.40;;
63651;SDS011;49801;37.536;-122.304;2022-07-22T00:54:52;5.72;;;1.80;;
63651;SDS011;49801;37.536;-122.304;2022-07-22T00:55:18;3.97;;;1.77;;
63651;SDS011;49801;37.536;-122.304;2022-07-22T00:56:05;3.95;;;2.08;;
63651;SDS011;49801;37.536;-122.304;2022-07-22T00:56:31;5.88;;;2.17;;
63651;SDS011;49801;37.536;-122.304;2022-07-22T00:56:58;4.60;;;1.52;;
63651;SDS011;49801;37.536;-122.304;2022-07-22T00:57:24;3.22;;;1.60;;
63651;SDS011;49801;37.536;-122.304;2022-07-22T00:57:51;4.32;;;1.80;;
63651;SDS011;49801;37.536;-122.304;2022-07-22T00:58:17;4.25;;;2.10;;
63651;SDS011;49801;37.536;-122.304;2022-07-22T00:58:46;4.25;;;2.20;;
63651;SDS011;49801;37.536;-122.304;2022-07-22T00:59:14;6.45;;;2.10;;
63651;SDS011;49801;37.536;-122.304;2022-07-22T00:59:40;5.05;;;1.80;;
63651;SDS011;49801;37.536;-122.304;2022-07-22T01:00:09;9.98;;;2.28;;
63651;SDS011;49801;37.536;-122.304;2022-07-22T01:00:38;5.88;;;1.73;;
63651;SDS011;49801;37.536;-122.304;2022-07-22T01:01:05;5.07;;;2.05;;
63651;SDS011;49801;37.536;-122.304;2022-07-22T01:01:31;3.60;;;2.10;;
63651;SDS011;49801;37.536;-122.304;2022-07-22T01:01:58;3.67;;;1.90;;
63651;SDS011;49801;37.536;-122.304;2022-07-22T01:02:24;5.32;;;2.13;;
63651;SDS011;49801;37.536;-122.304;2022-07-22T01:02:50;4.25;;;2.00;;
63651;SDS011;49801;37.536;-122.304;2022-07-22T01:03:17;4.10;;;1.95;;
63651;SDS011;49801;37.536;-122.304;2022-07-22T01:03:43;6.55;;;1.98;;
63651;SDS011;49801;37.536;-122.304;2022-07-22T01:04:09;3.60;;;1.70;;
63651;SDS011;49801;37.536;-122.304;2022-07-22T01:04:36;5.50;;;2.05;;
63651;SDS011;49801;37.536;-122.304;2022-07-22T01:05:03;4.20;;;1.73;;
63651;SDS011;49801;37.536;-122.304;2022-07-22T01:05:31;3.58;;;1.80;;
63651;SDS011;49801;37.536;-122.304;2022-07-22T01:05:57;4.55;;;1.75;;
63651;SDS011;49801;37.536;-122.304;2022-07-22T01:06:23;5.15;;;1.83;;
63651;SDS011;49801;37.536;-122.304;2022-07-22T01:06:49;6.65;;;2.50;;
63651;SDS011;49801;37.536;-122.304;2022-07-22T01:07:15;2.72;;;1.38;;
63651;SDS011;49801;37.536;-122.304;2022-07-22T01:07:42;3.67;;;2.00;;
63651;SDS011;49801;37.536;-122.304;2022-07-22T01:08:08;5.35;;;2.08;;
63651;SDS011;49801;37.536;-122.304;2022-07-22T01:08:34;4.57;;;2.00;;
63651;SDS011;49801;37.536;-122.304;2022-07-22T01:09:01;3.75;;;1.65;;
63651;SDS011;49801;37.536;-122.304;2022-07-22T01:09:28;4.68;;;2.28;;
63651;SDS011;49801;37.536;-122.304;2022-07-22T01:09:54;4.10;;;1.67;;
63651;SDS011;49801;37.536;-122.304;2022-07-22T01:10:20;4.28;;;2.00;;
63651;SDS011;49801;37.536;-122.304;2022-07-22T01:10:46;5.85;;;2.10;;
63651;SDS011;49801;37.536;-122.304;2022-07-22T01:11:14;3.72;;;1.80;;
63651;SDS011;49801;37.536;-122.304;2022-07-22T01:11:41;3.90;;;1.55;;
63651;SDS011;49801;37.536;-122.304;2022-07-22T01:12:08;2.63;;;1.63;;
63651;SDS011;49801;37.536;-122.304;2022-07-22T01:12:34;5.60;;;2.10;;
63651;SDS011;49801;37.536;-122.304;2022-07-22T01:13:00;3.38;;;1.98;;
63651;SDS011;49801;37.536;-122.304;2022-07-22T01:13:26;4.25;;;1.80;;
63651;SDS011;49801;37.536;-122.304;2022-07-22T01:13:53;4.10;;;2.00;;
63651;SDS011;49801;37.536;-122.304;2022-07-22T01:14:20;5.15;;;2.08;;
63651;SDS011;49801;37.536;-122.304;2022-07-22T01:14:46;4.88;;;2.10;;
63651;SDS011;49801;37.536;-122.304;2022-07-22T01:15:13;6.50;;;2.33;;
63651;SDS011;49801;37.536;-122.304;2022-07-22T01:15:39;4.43;;;2.35;;
63651;SDS011;49801;37.536;-122.304;2022-07-22T01:16:06;4.65;;;2.17;;
63651;SDS011;49801;37.536;-122.304;2022-07-22T01:16:33;4.78;;;1.98;;
63651;SDS011;49801;37.536;-122.304;2022-07-22T01:16:59;5.70;;;1.80;;
63651;SDS011;49801;37.536;-122.304;2022-07-22T01:17:25;2.75;;;1.60;;
63651;SDS011;49801;37.536;-122.304;2022-07-22T01:17:52;3.80;;;2.28;;
63651;SDS011;49801;37.536;-122.304;2022-07-22T01:18:18;4.95;;;2.00;;
63651;SDS011;49801;37.536;-122.304;2022-07-22T01:18:44;4.50;;;2.50;;
63651;SDS011;49801;37.536;-122.304;2022-07-22T01:19:12;4.53;;;2.47;;
63651;SDS011;49801;37.536;-122.304;2022-07-22T01:19:38;3.60;;;1.85;;
63651;SDS011;49801;37.536;-122.304;2022-07-22T01:20:05;4.97;;;2.30;;
63651;SDS011;49801;37.536;-122.304;2022-07-22T01:20:34;5.00;;;2.03;;
63651;SDS011;49801;37.536;-122.304;2022-07-22T01:21:01;3.60;;;2.13;;
63651;SDS011;49801;37.536;-122.304;2022-07-22T01:21:27;5.47;;;2.50;;
63651;SDS011;49801;37.536;-122.304;2022-07-22T01:21:54;5.82;;;1.80;;
63651;SDS011;49801;37.536;-122.304;2022-07-22T01:22:20;4.55;;;2.17;;
63651;SDS011;49801;37.536;-122.304;2022-07-22T01:22:46;3.83;;;2.00;;
63651;SDS011;49801;37.536;-122.304;2022-07-22T01:23:13;4.63;;;2.30;;
63651;SDS011;49801;37.536;-122.304;2022-07-22T01:23:39;7.30;;;2.25;;
63651;SDS011;49801;37.536;-122.304;2022-07-22T01:24:05;5.05;;;2.15;;
63651;SDS011;49801;37.536;-122.304;2022-07-22T01:24:32;4.45;;;2.17;;
63651;SDS011;49801;37.536;-122.304;2022-07-22T01:24:58;4.00;;;2.08;;
63651;SDS011;49801;37.536;-122.304;2022-07-22T01:25:24;5.60;;;2.10;;
63651;SDS011;49801;37.536;-122.304;2022-07-22T01:25:51;6.55;;;2.00;;
63651;SDS011;49801;37.536;-122.304;2022-07-22T01:26:17;7.28;;;2.55;;
63651;SDS011;49801;37.536;-122.304;2022-07-22T01:26:43;4.93;;;2.03;;
63651;SDS011;49801;37.536;-122.304;2022-07-22T01:27:09;3.67;;;1.92;;
63651;SDS011;49801;37.536;-122.304;2022-07-22T01:27:36;5.95;;;2.35;;
63651;SDS011;49801;37.536;-122.304;2022-07-22T01:28:02;6.07;;;2.33;;
63651;SDS011;49801;37.536;-122.304;2022-07-22T01:28:29;4.13;;;1.80;;
63651;SDS011;49801;37.536;-122.304;2022-07-22T01:28:56;2.92;;;1.25;;
63651;SDS011;49801;37.536;-122.304;2022-07-22T01:29:22;5.13;;;2.13;;
63651;SDS011;49801;37.536;-122.304;2022-07-22T01:29:48;3.80;;;1.88;;
63651;SDS011;49801;37.536;-122.304;2022-07-22T01:30:14;5.47;;;2.13;;
63651;SDS011;49801;37.536;-122.304;2022-07-22T01:30:40;8.88;;;2.08;;
63651;SDS011;49801;37.536;-122.304;2022-07-22T01:31:07;5.00;;;2.28;;
63651;SDS011;49801;37.536;-122.304;2022-07-22T01:31:33;6.72;;;2.10;;
63651;SDS011;49801;37.536;-122.304;2022-07-22T01:31:59;7.07;;;2.60;;
63651;SDS011;49801;37.536;-122.304;2022-07-22T01:32:25;3.97;;;2.05;;
63651;SDS011;49801;37.536;-122.304;2022-07-22T01:32:52;3.95;;;1.92;;
63651;SDS011;49801;37.536;-122.304;2022-07-22T01:33:19;5.20;;;2.38;;
63651;SDS011;49801;37.536;-122.304;2022-07-22T01:33:46;3.08;;;1.80;;
63651;SDS011;49801;37.536;-122.304;2022-07-22T01:34:13;5.60;;;2.60;;
63651;SDS011;49801;37.536;-122.304;2022-07-22T01:34:39;3.65;;;2.08;;
63651;SDS011;49801;37.536;-122.304;2022-07-22T01:35:05;3.58;;;1.67;;
63651;SDS011;49801;37.536;-122.304;2022-07-22T01:35:32;4.93;;;2.30;;
63651;SDS011;49801;37.536;-122.304;2022-07-22T01:35:58;5.63;;;2.20;;
63651;SDS011;49801;37.536;-122.304;2022-07-22T01:36:24;5.90;;;1.95;;
63651;SDS011;49801;37.536;-122.304;2022-07-22T01:36:51;6.55;;;2.30;;
63651;SDS011;49801;37.536;-122.304;2022-07-22T01:37:17;4.20;;;2.35;;
63651;SDS011;49801;37.536;-122.304;2022-07-22T01:37:43;5.25;;;2.22;;
63651;SDS011;49801;37.536;-122.304;2022-07-22T01:38:10;4.75;;;1.98;;
63651;SDS011;49801;37.536;-122.304;2022-07-22T01:38:37;8.45;;;2.58;;
63651;SDS011;49801;37.536;-122.304;2022-07-22T01:39:04;4.65;;;2.33;;
63651;SDS011;49801;37.536;-122.304;2022-07-22T01:39:30;6.82;;;2.47;;
63651;SDS011;49801;37.536;-122.304;2022-07-22T01:39:56;4.70;;;2.33;;
63651;SDS011;49801;37.536;-122.304;2022-07-22T01:40:22;5.28;;;2.17;;
63651;SDS011;49801;37.536;-122.304;2022-07-22T01:40:49;4.70;;;2.15;;
63651;SDS011;49801;37.536;-122.304;2022-07-22T01:41:15;7.32;;;2.67;;
63651;SDS011;49801;37.536;-122.304;2022-07-22T01:41:41;5.80;;;2.00;;
63651;SDS011;49801;37.536;-122.304;2022-07-22T01:42:08;4.72;;;2.10;;
63651;SDS011;49801;37.536;-122.304;2022-07-22T01:42:34;4.95;;;1.85;;
63651;SDS011;49801;37.536;-122.304;2022-07-22T01:43:00;4.68;;;2.10;;
63651;SDS011;49801;37.536;-122.304;2022-07-22T01:43:26;3.83;;;1.88;;
63651;SDS011;49801;37.536;-122.304;2022-07-22T01:43:53;5.50;;;2.55;;
63651;SDS011;49801;37.536;-122.304;2022-07-22T01:44:19;4.78;;;1.98;;
63651;SDS011;49801;37.536;-122.304;2022-07-22T01:44:45;4.50;;;1.95;;
63651;SDS011;49801;37.536;-122.304;2022-07-22T01:45:11;4.57;;;2.25;;
63651;SDS011;49801;37.536;-122.304;2022-07-22T01:45:37;6.60;;;2.17;;
63651;SDS011;49801;37.536;-122.304;2022-07-22T01:46:04;4.72;;;2.33;;
63651;SDS011;49801;37.536;-122.304;2022-07-22T01:46:30;4.38;;;2.17;;
63651;SDS011;49801;37.536;-122.304;2022-07-22T01:46:56;3.72;;;2.08;;
63651;SDS011;49801;37.536;-122.304;2022-07-22T01:47:23;3.83;;;2.20;;
63651;SDS011;49801;37.536;-122.304;2022-07-22T01:47:50;4.43;;;2.35;;
63651;SDS011;49801;37.536;-122.304;2022-07-22T01:48:16;4.72;;;2.35;;
63651;SDS011;49801;37.536;-122.304;2022-07-22T01:48:43;5.35;;;2.72;;
63651;SDS011;49801;37.536;-122.304;2022-07-22T01:49:09;6.95;;;2.30;;
63651;SDS011;49801;37.536;-122.304;2022-07-22T01:49:35;5.32;;;2.42;;
63651;SDS011;49801;37.536;-122.304;2022-07-22T01:50:03;6.40;;;1.77;;
63651;SDS011;49801;37.536;-122.304;2022-07-22T01:50:31;4.93;;;2.33;;
63651;SDS011;49801;37.536;-122.304;2022-07-22T01:50:57;6.10;;;2.70;;
63651;SDS011;49801;37.536;-122.304;2022-07-22T01:51:23;5.00;;;2.05;;
63651;SDS011;49801;37.536;-122.304;2022-07-22T01:51:49;3.75;;;2.00;;
63651;SDS011;49801;37.536;-122.304;2022-07-22T01:52:16;6.38;;;2.25;;
63651;SDS011;49801;37.536;-122.304;2022-07-22T01:52:42;7.43;;;1.92;;
63651;SDS011;49801;37.536;-122.304;2022-07-22T01:53:08;4.25;;;2.28;;
63651;SDS011;49801;37.536;-122.304;2022-07-22T01:53:35;4.88;;;2.08;;
63651;SDS011;49801;37.536;-122.304;2022-07-22T01:54:01;4.95;;;2.13;;
63651;SDS011;49801;37.536;-122.304;2022-07-22T01:54:27;5.68;;;2.25;;
63651;SDS011;49801;37.536;-122.304;2022-07-22T01:54:54;4.57;;;2.17;;
63651;SDS011;49801;37.536;-122.304;2022-07-22T01:55:20;6.00;;;2.35;;
63651;SDS011;49801;37.536;-122.304;2022-07-22T01:55:46;3.97;;;1.80;;
63651;SDS011;49801;37.536;-122.304;2022-07-22T01:56:12;5.97;;;2.28;;
63651;SDS011;49801;37.536;-122.304;2022-07-22T01:56:38;4.63;;;2.13;;
63651;SDS011;49801;37.536;-122.304;2022-07-22T01:57:04;5.32;;;2.28;;
63651;SDS011;49801;37.536;-122.304;2022-07-22T01:57:31;4.70;;;2.03;;
63651;SDS011;49801;37.536;-122.304;2022-07-22T01:57:57;6.63;;;2.22;;
63651;SDS011;49801;37.536;-122.304;2022-07-22T01:58:23;4.28;;;2.15;;
63651;SDS011;49801;37.536;-122.304;2022-07-22T01:58:49;4.60;;;2.20;;
63651;SDS011;49801;37.536;-122.304;2022-07-22T01:59:15;3.40;;;2.38;;
63651;SDS011;49801;37.536;-122.304;2022-07-22T01:59:42;4.07;;;2.30;;
63651;SDS011;49801;37.536;-122.304;2022-07-22T02:00:08;4.43;;;2.25;;
63651;SDS011;49801;37.536;-122.304;2022-07-22T02:00:38;4.95;;;2.00;;
63651;SDS011;49801;37.536;-122.304;2022-07-22T02:01:04;5.15;;;2.47;;
63651;SDS011;49801;37.536;-122.304;2022-07-22T02:01:31;4.88;;;2.38;;
63651;SDS011;49801;37.536;-122.304;2022-07-22T02:01:57;4.43;;;1.95;;
63651;SDS011;49801;37.536;-122.304;2022-07-22T02:02:23;3.55;;;2.00;;
63651;SDS011;49801;37.536;-122.304;2022-07-22T02:02:49;5.22;;;2.10;;
63651;SDS011;49801;37.536;-122.304;2022-07-22T02:03:15;4.45;;;2.17;;
63651;SDS011;49801;37.536;-122.304;2022-07-22T02:03:41;4.50;;;2.20;;
63651;SDS011;49801;37.536;-122.304;2022-07-22T02:04:08;9.25;;;2.30;;
63651;SDS011;49801;37.536;-122.304;2022-07-22T02:04:34;3.83;;;2.20;;
63651;SDS011;49801;37.536;-122.304;2022-07-22T02:05:00;3.15;;;2.08;;
63651;SDS011;49801;37.536;-122.304;2022-07-22T02:05:28;6.75;;;2.92;;
63651;SDS011;49801;37.536;-122.304;2022-07-22T02:05:55;5.90;;;2.00;;
63651;SDS011;49801;37.536;-122.304;2022-07-22T02:06:21;5.80;;;2.42;;
63651;SDS011;49801;37.536;-122.304;2022-07-22T02:06:48;4.50;;;1.88;;
63651;SDS011;49801;37.536;-122.304;2022-07-22T02:07:14;3.53;;;1.92;;
63651;SDS011;49801;37.536;-122.304;2022-07-22T02:07:40;4.75;;;1.73;;
63651;SDS011;49801;37.536;-122.304;2022-07-22T02:08:07;6.88;;;2.13;;
63651;SDS011;49801;37.536;-122.304;2022-07-22T02:08:35;5.45;;;2.30;;
63651;SDS011;49801;37.536;-122.304;2022-07-22T02:09:01;6.18;;;2.22;;
63651;SDS011;49801;37.536;-122.304;2022-07-22T02:09:28;5.10;;;2.25;;
63651;SDS011;49801;37.536;-122.304;2022-07-22T02:09:55;4.28;;;2.17;;
63651;SDS011;49801;37.536;-122.304;2022-07-22T02:10:21;4.75;;;2.05;;
63651;SDS011;49801;37.536;-122.304;2022-07-22T02:10:47;4.75;;;2.00;;
63651;SDS011;49801;37.536;-122.304;2022-07-22T02:11:13;6.03;;;2.47;;
63651;SDS011;49801;37.536;-122.304;2022-07-22T02:11:39;4.15;;;2.20;;
63651;SDS011;49801;37.536;-122.304;2022-07-22T02:12:06;4.50;;;2.10;;
63651;SDS011;49801;37.536;-122.304;2022-07-22T02:12:32;4.05;;;2.15;;
63651;SDS011;49801;37.536;-122.304;2022-07-22T02:12:58;2.95;;;1.55;;
63651;SDS011;49801;37.536;-122.304;2022-07-22T02:13:25;5.20;;;2.35;;
63651;SDS011;49801;37.536;-122.304;2022-07-22T02:13:51;3.13;;;1.83;;
63651;SDS011;49801;37.536;-122.304;2022-07-22T02:14:17;5.75;;;2.30;;
63651;SDS011;49801;37.536;-122.304;2022-07-22T02:14:43;3.78;;;2.15;;
63651;SDS011;49801;37.536;-122.304;2022-07-22T02:15:10;4.85;;;2.30;;
63651;SDS011;49801;37.536;-122.304;2022-07-22T02:15:36;7.03;;;2.40;;
63651;SDS011;49801;37.536;-122.304;2022-07-22T02:16:03;4.50;;;2.17;;
63651;SDS011;49801;37.536;-122.304;2022-07-22T02:16:29;5.45;;;2.10;;
63651;SDS011;49801;37.536;-122.304;2022-07-22T02:16:55;6.13;;;1.83;;
63651;SDS011;49801;37.536;-122.304;2022-07-22T02:17:21;5.22;;;2.72;;
63651;SDS011;49801;37.536;-122.304;2022-07-22T02:17:48;4.10;;;2.00;;
63651;SDS011;49801;37.536;-122.304;2022-07-22T02:18:15;5.50;;;2.10;;
63651;SDS011;49801;37.536;-122.304;2022-07-22T02:18:43;3.25;;;1.88;;
63651;SDS011;49801;37.536;-122.304;2022-07-22T02:19:09;5.97;;;2.10;;
63651;SDS011;49801;37.536;-122.304;2022-07-22T02:19:35;4.15;;;2.17;;
63651;SDS011;49801;37.536;-122.304;2022-07-22T02:20:02;5.13;;;2.35;;
63651;SDS011;49801;37.536;-122.304;2022-07-22T02:20:29;4.40;;;2.20;;
63651;SDS011;49801;37.536;-122.304;2022-07-22T02:20:55;4.40;;;2.50;;
63651;SDS011;49801;37.536;-122.304;2022-07-22T02:21:21;5.88;;;2.65;;
63651;SDS011;49801;37.536;-122.304;2022-07-22T02:21:47;6.78;;;2.30;;
63651;SDS011;49801;37.536;-122.304;2022-07-22T02:22:13;3.90;;;2.22;;
63651;SDS011;49801;37.536;-122.304;2022-07-22T02:22:40;5.47;;;2.50;;
63651;SDS011;49801;37.536;-122.304;2022-07-22T02:23:06;4.90;;;2.25;;
63651;SDS011;49801;37.536;-122.304;2022-07-22T02:23:32;4.80;;;2.10;;
63651;SDS011;49801;37.536;-122.304;2022-07-22T02:23:59;5.25;;;2.38;;
63651;SDS011;49801;37.536;-122.304;2022-07-22T02:24:25;5.28;;;2.35;;
63651;SDS011;49801;37.536;-122.304;2022-07-22T02:24:51;4.60;;;1.95;;
63651;SDS011;49801;37.536;-122.304;2022-07-22T02:25:17;5.90;;;2.30;;
63651;SDS011;49801;37.536;-122.304;2022-07-22T02:25:43;4.28;;;2.10;;
63651;SDS011;49801;37.536;-122.304;2022-07-22T02:26:09;5.38;;;2.15;;
63651;SDS011;49801;37.536;-122.304;2022-07-22T02:26:36;5.22;;;2.03;;
63651;SDS011;49801;37.536;-122.304;2022-07-22T02:27:02;5.05;;;2.22;;
63651;SDS011;49801;37.536;-122.304;2022-07-22T02:27:29;6.40;;;2.22;;
63651;SDS011;49801;37.536;-122.304;2022-07-22T02:27:55;6.95;;;2.60;;
63651;SDS011;49801;37.536;-122.304;2022-07-22T02:28:21;8.52;;;2.38;;
63651;SDS011;49801;37.536;-122.304;2022-07-22T02:28:47;6.40;;;2.22;;
63651;SDS011;49801;37.536;-122.304;2022-07-22T02:29:13;3.13;;;2.25;;
63651;SDS011;49801;37.536;-122.304;2022-07-22T02:30:00;4.43;;;2.05;;
63651;SDS011;49801;37.536;-122.304;2022-07-22T02:30:26;3.63;;;2.00;;
63651;SDS011;49801;37.536;-122.304;2022-07-22T02:30:52;5.53;;;2.28;;
63651;SDS011;49801;37.536;-122.304;2022-07-22T02:31:19;5.55;;;2.30;;
63651;SDS011;49801;37.536;-122.304;2022-07-22T02:31:45;5.20;;;2.35;;
63651;SDS011;49801;37.536;-122.304;2022-07-22T02:32:12;5.25;;;2.20;;
63651;SDS011;49801;37.536;-122.304;2022-07-22T02:32:38;4.95;;;2.10;;
63651;SDS011;49801;37.536;-122.304;2022-07-22T02:33:04;3.53;;;1.85;;
63651;SDS011;49801;37.536;-122.304;2022-07-22T02:33:31;3.90;;;2.20;;